EDT,Max TemperatureF,Mean TemperatureF,Min TemperatureF,Max Dew PointF,MeanDew PointF,Min DewpointF,Max Humidity, Mean Humidity, Min Humidity, Max Sea Level PressureIn, Mean Sea Level PressureIn, Min Sea Level PressureIn, Max VisibilityMiles, Mean VisibilityMiles, Min VisibilityMiles, Max Wind SpeedMPH, Mean Wind SpeedMPH, Max Gust SpeedMPH,PrecipitationIn, CloudCover, Events, WindDirDegrees
2013-3-1,46,42,37,32,30,27,70,65,50,29.87,29.79,29.71,10,10,10,15,9,18,0.00,7,,278
2013-3-2,39,36,32,30,25,21,81,65,49,29.89,29.85,29.81,10,10,5,14,9,21,0.00,5,Snow,291
2013-3-3,39,36,32,23,21,19,69,59,48,29.90,29.85,29.79,10,10,10,20,14,25,0.00,5,,286
2013-3-4,42,35,28,19,18,16,64,55,39,30.04,29.96,29.90,10,10,10,25,16,31,0.00,1,,284
2013-3-5,46,37,28,32,24,18,80,63,42,30.10,30.02,29.89,10,10,10,12,3,,0.00,1,,24
2013-3-6,41,37,33,37,34,28,100,86,65,29.97,29.80,29.67,10,7,3,21,10,37,0.13,6,Rain-Snow,13
2013-3-7,50,42,32,30,28,23,81,62,40,30.15,30.07,29.97,10,10,10,17,11,26,0.00,3,,311
2013-3-8,48,40,33,27,25,21,75,56,43,30.27,30.17,30.12,10,10,10,22,10,34,0.00,2,,309
2013-3-9,59,47,35,32,26,21,87,54,29,30.34,30.29,30.26,10,10,10,13,7,20,0.00,0,,321
2013-3-10,57,44,30,37,31,25,93,76,29,30.37,30.32,30.27,10,10,7,12,2,,0.00,0,,107
2013-3-11,55,48,41,48,43,37,100,90,76,30.30,30.19,30.01,10,7,0,18,5,,0.00,6,,110
2013-3-12,59,50,41,55,46,32,100,84,61,30.00,29.89,29.73,10,8,3,26,14,36,0.01,5,Rain,167
2013-3-13,48,40,32,32,28,19,93,62,32,30.05,29.97,29.90,10,10,10,23,8,29,0.00,3,,272
2013-3-14,44,38,32,21,18,12,60,48,31,30.10,30.06,30.01,10,10,10,31,16,40,0.00,1,,267
2013-3-15,55,44,32,45,23,18,93,54,28,30.10,29.99,29.79,10,10,10,15,6,21,0.00,2,,227
2013-3-16,48,42,35,37,34,32,87,76,61,29.96,29.83,29.70,10,10,7,16,2,,0.00,5,,10
2013-3-17,41,37,33,32,29,21,93,76,49,30.29,30.10,29.95,10,8,5,9,3,,0.00,6,,332
2013-3-18,39,37,35,37,27,19,100,70,48,30.36,30.22,29.91,10,8,2,13,5,18,0.01,5,Rain,49
2013-3-19,57,47,37,39,33,16,100,76,21,29.92,29.83,29.72,10,7,2,23,5,34,0.00,6,,284
2013-3-20,51,43,35,30,19,12,60,42,21,30.00,29.91,29.80,10,10,10,17,8,25,0.00,1,,258
2013-3-21,42,37,32,27,19,10,80,52,33,29.89,29.82,29.76,10,10,10,21,10,28,0.00,3,Snow,301
2013-3-22,46,38,30,19,16,10,60,48,34,30.01,29.92,29.88,10,10,10,23,9,28,0.00,1,,264
2013-3-23,50,41,32,25,22,19,69,52,32,30.03,30.00,29.93,10,10,10,18,8,28,0.00,0,,274
2013-3-24,44,37,30,34,24,16,93,62,34,30.02,29.88,29.71,10,10,10,15,4,,0.00,4,,306
2013-3-25,37,34,32,36,33,32,100,93,81,29.71,29.61,29.53,10,6,0,7,3,,0.06,7,Rain-Snow,316
2013-3-26,50,41,32,36,32,25,93,76,37,29.97,29.81,29.70,10,10,7,15,6,20,0.00,3,,268
2013-3-27,50,44,39,32,29,25,75,59,43,30.10,30.02,29.97,10,10,10,28,13,33,0.00,2,,276
2013-3-28,48,42,37,32,30,27,75,62,43,30.22,30.12,30.09,10,10,7,17,10,25,0.00,4,,272
2013-3-29,55,45,35,30,29,27,81,58,33,30.25,30.21,30.15,10,10,10,20,8,25,0.00,3,,279
2013-3-30,57,44,32,34,31,27,87,65,35,30.24,30.19,30.13,10,10,7,10,1,,0.00,2,,153
2013-3-31,53,44,35,50,40,32,100,88,67,30.15,30.00,29.76,10,8,0,8,1,,0.00,4,Rain,162